createdAt,value
2023-12-11T00:02:02.584Z,5.85
2023-12-11T00:04:29.360Z,5.86
2023-12-11T00:06:56.158Z,5.84
2023-12-11T00:09:22.830Z,5.83
2023-12-11T00:11:49.570Z,5.85
2023-12-11T00:14:16.290Z,5.83
2023-12-11T00:16:44.758Z,5.83
2023-12-11T00:19:12.402Z,5.82
2023-12-11T00:21:39.632Z,5.83
2023-12-11T00:24:07.641Z,5.81
2023-12-11T00:26:34.442Z,5.80
2023-12-11T00:29:01.182Z,5.80
2023-12-11T00:31:28.013Z,5.80
2023-12-11T00:33:54.984Z,5.79
2023-12-11T00:36:21.866Z,5.76
2023-12-11T00:38:49.102Z,5.75
2023-12-11T00:41:18.912Z,5.71
2023-12-11T00:43:46.805Z,5.65
2023-12-11T00:46:25.367Z,5.56
2023-12-11T00:48:52.334Z,5.49
2023-12-11T00:51:22.484Z,5.38
2023-12-11T00:53:49.586Z,5.40
2023-12-11T00:56:16.676Z,5.39
2023-12-11T00:58:44.500Z,5.45
2023-12-11T01:01:11.572Z,5.59
2023-12-11T01:03:39.364Z,5.69
2023-12-11T01:06:06.599Z,5.73
2023-12-11T01:08:36.586Z,5.82
2023-12-11T01:11:03.662Z,6.04
2023-12-11T01:13:30.321Z,6.27
2023-12-11T01:15:57.347Z,6.36
2023-12-11T01:18:25.238Z,6.49
2023-12-11T01:20:52.280Z,6.54
2023-12-11T01:23:19.528Z,6.62
2023-12-11T01:25:46.251Z,6.67
2023-12-11T01:28:13.144Z,6.78
2023-12-11T01:30:39.832Z,6.83
2023-12-11T01:33:06.583Z,6.84
2023-12-11T01:35:37.400Z,6.75
2023-12-11T01:38:04.890Z,6.62
2023-12-11T01:40:31.588Z,6.76
2023-12-11T01:43:19.299Z,6.78
2023-12-11T01:46:14.798Z,6.86
2023-12-11T01:48:42.115Z,6.91
2023-12-11T01:51:10.788Z,6.89
2023-12-11T01:53:37.820Z,6.91
2023-12-11T01:56:04.822Z,6.95
2023-12-11T01:58:31.753Z,7.11
2023-12-11T02:00:59.311Z,7.13
2023-12-11T02:03:26.063Z,7.02
2023-12-11T02:05:53.008Z,6.96
2023-12-11T02:08:19.880Z,6.92
2023-12-11T02:10:46.791Z,6.90
2023-12-11T02:13:14.638Z,6.83
2023-12-11T02:15:43.967Z,6.77
2023-12-11T02:18:12.260Z,6.79
2023-12-11T02:20:40.046Z,6.89
2023-12-11T02:23:32.825Z,7.12
2023-12-11T02:26:26.314Z,7.21
2023-12-11T02:28:53.009Z,7.15
2023-12-11T02:31:19.829Z,7.44
2023-12-11T02:33:46.652Z,7.50
2023-12-11T02:36:13.586Z,7.55
2023-12-11T02:38:40.303Z,7.56
2023-12-11T02:41:07.042Z,7.52
2023-12-11T02:43:34.908Z,7.59
2023-12-11T02:46:01.648Z,7.56
2023-12-11T02:48:28.489Z,7.64
2023-12-11T02:50:55.275Z,7.64
2023-12-11T02:53:22.008Z,7.56
2023-12-11T02:55:48.698Z,7.57
2023-12-11T02:58:15.577Z,7.58
2023-12-11T03:00:42.572Z,7.51
2023-12-11T03:03:10.205Z,7.50
2023-12-11T03:05:37.178Z,7.42
2023-12-11T03:08:05.593Z,7.61
2023-12-11T03:10:33.428Z,7.52
2023-12-11T03:13:00.385Z,7.49
2023-12-11T03:15:27.228Z,7.40
2023-12-11T03:17:53.890Z,7.41
2023-12-11T03:20:20.591Z,7.39
2023-12-11T03:22:47.315Z,7.30
2023-12-11T03:25:14.142Z,7.36
2023-12-11T03:27:41.028Z,7.51
2023-12-11T03:30:08.275Z,7.57
2023-12-11T03:32:35.119Z,7.49
2023-12-11T03:35:01.821Z,7.33
2023-12-11T03:37:28.882Z,7.32
2023-12-11T03:39:55.769Z,7.39
2023-12-11T03:42:22.705Z,7.34
2023-12-11T03:44:49.377Z,7.55
2023-12-11T03:47:16.403Z,7.45
2023-12-11T03:49:43.157Z,7.34
2023-12-11T03:52:09.985Z,7.20
2023-12-11T03:54:37.117Z,7.24
2023-12-11T03:57:04.465Z,7.30
2023-12-11T03:59:31.710Z,7.34
2023-12-11T04:01:58.490Z,7.30
2023-12-11T04:04:25.428Z,7.40
2023-12-11T04:06:52.281Z,7.33
2023-12-11T04:09:19.045Z,7.49
2023-12-11T04:11:46.025Z,7.39
2023-12-11T04:14:13.175Z,7.36
2023-12-11T04:16:43.279Z,7.40
2023-12-11T04:19:12.388Z,7.43
2023-12-11T04:21:39.375Z,7.45
2023-12-11T04:24:06.557Z,7.49
2023-12-11T04:26:33.229Z,7.47
2023-12-11T04:28:59.975Z,7.42
2023-12-11T04:31:26.658Z,7.43
2023-12-11T04:33:53.715Z,7.57
2023-12-11T04:36:20.743Z,7.55
2023-12-11T04:38:47.582Z,7.63
2023-12-11T04:41:14.272Z,7.56
2023-12-11T04:43:41.004Z,7.55
2023-12-11T04:46:07.747Z,7.58
2023-12-11T04:48:34.677Z,7.60
2023-12-11T04:51:01.539Z,7.68
2023-12-11T04:53:28.281Z,7.74
2023-12-11T04:55:55.125Z,7.79
2023-12-11T04:58:22.266Z,7.92
2023-12-11T05:00:49.133Z,7.91
2023-12-11T05:03:16.044Z,7.91
2023-12-11T05:05:42.799Z,7.99
2023-12-11T05:08:09.463Z,8.06
2023-12-11T05:10:36.093Z,8.05
2023-12-11T05:13:02.974Z,8.15
2023-12-11T05:15:29.757Z,8.21
2023-12-11T05:17:56.524Z,8.25
2023-12-11T05:20:23.359Z,8.21
2023-12-11T05:22:50.046Z,8.17
2023-12-11T05:25:16.831Z,8.14
2023-12-11T05:27:43.725Z,8.08
2023-12-11T05:30:10.717Z,8.00
2023-12-11T05:32:38.300Z,7.94
2023-12-11T05:35:05.574Z,7.87
2023-12-11T05:37:32.698Z,7.81
2023-12-11T05:40:20.711Z,7.77
2023-12-11T05:42:46.228Z,7.72
2023-12-11T05:45:12.984Z,7.69
2023-12-11T05:47:39.764Z,7.64
2023-12-11T05:50:07.060Z,7.57
2023-12-11T05:52:33.799Z,7.53
2023-12-11T05:55:00.528Z,7.54
2023-12-11T05:57:27.439Z,7.50
2023-12-11T05:59:54.230Z,7.45
2023-12-11T06:02:21.026Z,7.36
2023-12-11T06:04:47.883Z,7.30
2023-12-11T06:07:14.714Z,7.22
2023-12-11T06:09:41.588Z,7.21
2023-12-11T06:12:12.829Z,7.14
2023-12-11T06:14:40.589Z,7.11
2023-12-11T06:17:07.565Z,6.96
2023-12-11T06:19:34.325Z,6.92
2023-12-11T06:22:01.138Z,7.05
2023-12-11T06:24:27.880Z,6.99
2023-12-11T06:26:54.865Z,6.98
2023-12-11T06:29:21.648Z,6.92
2023-12-11T06:31:48.412Z,6.95
2023-12-11T06:34:15.107Z,6.97
2023-12-11T06:36:41.939Z,7.02
2023-12-11T06:39:08.645Z,7.01
2023-12-11T06:41:38.488Z,7.12
2023-12-11T06:44:05.811Z,7.11
2023-12-11T06:46:32.512Z,7.08
2023-12-11T06:48:59.818Z,7.01
2023-12-11T06:51:27.133Z,7.00
2023-12-11T06:53:59.580Z,7.09
2023-12-11T06:56:28.389Z,7.00
2023-12-11T06:58:55.106Z,6.92
2023-12-11T07:01:22.042Z,7.08
2023-12-11T07:03:51.800Z,7.13
2023-12-11T07:06:18.756Z,7.29
2023-12-11T07:08:45.733Z,7.46
2023-12-11T07:11:12.690Z,7.51
2023-12-11T07:13:42.912Z,7.58
2023-12-11T07:16:10.220Z,7.70
2023-12-11T07:18:38.289Z,7.91
2023-12-11T07:21:12.825Z,8.15
2023-12-11T07:23:39.889Z,8.14
2023-12-11T07:26:09.951Z,8.17
2023-12-11T07:28:37.873Z,8.18
2023-12-11T07:31:06.896Z,8.22
2023-12-11T07:33:34.911Z,8.29
2023-12-11T07:36:03.155Z,8.30
2023-12-11T07:38:30.048Z,8.36
2023-12-11T07:40:57.668Z,8.40
2023-12-11T07:43:25.494Z,8.50
2023-12-11T07:45:53.244Z,8.59
2023-12-11T07:48:20.516Z,8.63
2023-12-11T07:50:47.381Z,8.69
2023-12-11T07:53:14.401Z,8.69
2023-12-11T07:55:41.362Z,8.79
2023-12-11T07:58:08.182Z,8.76
2023-12-11T08:00:34.971Z,8.78
2023-12-11T08:03:01.960Z,8.90
2023-12-11T08:05:28.841Z,8.96
2023-12-11T08:07:55.694Z,9.05
2023-12-11T08:10:22.581Z,9.16
2023-12-11T08:12:55.354Z,9.10
2023-12-11T08:15:22.326Z,9.09
2023-12-11T08:17:49.119Z,9.66
2023-12-11T08:20:18.665Z,10.12
2023-12-11T08:22:47.533Z,10.21
2023-12-11T08:25:15.343Z,10.40
2023-12-11T08:27:43.664Z,10.98
2023-12-11T08:30:14.447Z,12.38
2023-12-11T08:32:41.525Z,12.77
2023-12-11T08:35:09.803Z,12.81
2023-12-11T08:37:38.449Z,12.25
2023-12-11T08:40:07.011Z,12.05
2023-12-11T08:42:40.937Z,11.87
2023-12-11T08:45:10.213Z,11.74
2023-12-11T08:47:39.625Z,11.64
2023-12-11T08:50:11.602Z,12.52
2023-12-11T08:52:39.276Z,13.18
2023-12-11T08:55:09.307Z,13.95
2023-12-11T08:57:38.029Z,14.21
2023-12-11T09:00:06.864Z,14.60
2023-12-11T09:02:33.770Z,15.09
2023-12-11T09:05:00.665Z,15.40
2023-12-11T09:07:27.395Z,15.24
2023-12-11T09:10:10.625Z,15.48
2023-12-11T09:12:39.429Z,15.75
2023-12-11T09:15:06.934Z,15.80
2023-12-11T09:17:34.252Z,14.77
2023-12-11T09:20:05.462Z,14.52
2023-12-11T09:22:32.388Z,14.76
2023-12-11T09:24:59.147Z,14.91
2023-12-11T09:27:25.966Z,15.06
2023-12-11T09:29:52.826Z,14.66
2023-12-11T09:32:23.729Z,14.68
2023-12-11T09:34:50.753Z,14.09
2023-12-11T09:37:20.187Z,14.17
2023-12-11T09:39:50.317Z,13.49
2023-12-11T09:42:18.831Z,13.09
2023-12-11T09:44:47.841Z,12.85
2023-12-11T09:47:24.795Z,12.28
2023-12-11T09:49:52.593Z,12.49
2023-12-11T09:52:22.062Z,12.67
2023-12-11T09:54:52.219Z,12.56
2023-12-11T09:57:22.821Z,12.86
2023-12-11T09:59:51.884Z,12.89
2023-12-11T10:02:26.777Z,12.82
2023-12-11T10:05:10.706Z,12.83
2023-12-11T10:07:49.314Z,13.15
2023-12-11T10:10:24.497Z,12.88
2023-12-11T10:12:55.382Z,12.77
2023-12-11T10:15:30.092Z,12.71
2023-12-11T10:18:14.962Z,12.55
2023-12-11T10:20:43.391Z,12.48
2023-12-11T10:23:19.078Z,12.63
2023-12-11T10:25:51.711Z,12.74
2023-12-11T10:28:22.732Z,12.66
2023-12-11T10:30:55.329Z,12.72
2023-12-11T10:33:28.747Z,12.69
2023-12-11T10:36:14.089Z,12.62
2023-12-11T10:38:41.473Z,12.49
2023-12-11T10:41:27.412Z,12.29
2023-12-11T10:44:08.676Z,12.32
2023-12-11T10:46:43.964Z,12.10
2023-12-11T10:49:10.999Z,12.00
2023-12-11T10:51:38.109Z,11.94
2023-12-11T10:54:05.218Z,11.89
2023-12-11T10:56:32.634Z,11.88
2023-12-11T10:59:00.115Z,11.92
2023-12-11T11:01:27.856Z,12.07
2023-12-11T11:03:55.058Z,11.85
2023-12-11T11:06:23.537Z,11.80
2023-12-11T11:09:01.272Z,11.76
2023-12-11T11:11:33.876Z,11.61
2023-12-11T11:14:18.710Z,11.65
2023-12-11T11:16:51.538Z,11.70
2023-12-11T11:19:18.376Z,11.78
2023-12-11T11:22:08.074Z,11.75
2023-12-11T11:24:38.930Z,11.79
2023-12-11T11:27:44.443Z,11.84
2023-12-11T11:30:11.732Z,11.85
2023-12-11T11:32:57.897Z,11.79
2023-12-11T11:36:03.376Z,11.86
2023-12-11T11:38:54.963Z,11.93
2023-12-11T11:41:23.349Z,11.92
2023-12-11T11:44:16.222Z,11.88
2023-12-11T11:47:01.337Z,11.85
2023-12-11T11:49:38.152Z,11.82
2023-12-11T11:52:07.480Z,11.80
2023-12-11T11:54:37.973Z,11.81
2023-12-11T11:57:05.150Z,11.86
2023-12-11T11:59:32.975Z,11.75
2023-12-11T12:01:59.880Z,11.62
2023-12-11T12:04:30.833Z,11.53
2023-12-11T12:07:01.733Z,11.40
2023-12-11T12:09:28.966Z,11.25
2023-12-11T12:11:55.695Z,11.27
2023-12-11T12:14:23.379Z,11.17
2023-12-11T12:16:50.384Z,11.06
2023-12-11T12:19:17.481Z,10.95
2023-12-11T12:21:56.098Z,10.82
2023-12-11T12:24:23.336Z,10.72
2023-12-11T12:26:54.415Z,10.73
2023-12-11T12:29:21.335Z,10.70
2023-12-11T12:31:48.428Z,10.71
2023-12-11T12:34:18.458Z,10.69
2023-12-11T12:36:46.405Z,10.69
2023-12-11T12:39:19.257Z,10.74
2023-12-11T12:41:50.336Z,10.72
2023-12-11T12:44:21.585Z,10.86
2023-12-11T12:46:48.307Z,10.99
2023-12-11T12:49:16.610Z,10.94
2023-12-11T12:51:53.529Z,11.03
2023-12-11T12:54:22.778Z,10.95
2023-12-11T12:56:59.820Z,11.00
2023-12-11T12:59:27.191Z,10.97
2023-12-11T13:01:54.093Z,10.97
2023-12-11T13:04:24.337Z,11.01
2023-12-11T13:06:51.333Z,11.04
2023-12-11T13:09:32.793Z,11.07
2023-12-11T13:11:59.549Z,11.12
2023-12-11T13:14:29.348Z,11.00
2023-12-11T13:16:56.932Z,10.95
2023-12-11T13:19:25.414Z,10.99
2023-12-11T13:21:55.690Z,11.05
2023-12-11T13:24:22.800Z,11.14
2023-12-11T13:26:49.722Z,11.15
2023-12-11T13:29:16.345Z,11.14
2023-12-11T13:31:43.419Z,11.02
2023-12-11T13:34:10.288Z,10.93
2023-12-11T13:36:37.018Z,10.87
2023-12-11T13:39:06.672Z,10.87
2023-12-11T13:41:36.827Z,10.77
2023-12-11T13:44:04.538Z,10.74
2023-12-11T13:46:31.770Z,10.76
2023-12-11T13:48:58.763Z,10.76
2023-12-11T13:51:25.824Z,10.79
2023-12-11T13:54:02.876Z,10.75
2023-12-11T13:56:29.756Z,10.72
2023-12-11T13:58:56.474Z,10.69
2023-12-11T14:01:24.468Z,10.67
2023-12-11T14:03:51.614Z,10.59
2023-12-11T14:06:18.513Z,10.50
2023-12-11T14:08:45.531Z,10.44
2023-12-11T14:11:12.188Z,10.40
2023-12-11T14:13:38.951Z,10.38
2023-12-11T14:16:06.287Z,10.28
2023-12-11T14:18:35.365Z,10.20
2023-12-11T14:21:03.069Z,10.15
2023-12-11T14:23:30.019Z,10.11
2023-12-11T14:25:56.684Z,10.06
2023-12-11T14:28:23.352Z,9.99
2023-12-11T14:30:51.552Z,9.94
2023-12-11T14:33:18.624Z,9.88
2023-12-11T14:35:48.762Z,9.84
2023-12-11T14:38:17.560Z,9.81
2023-12-11T14:40:44.281Z,9.81
2023-12-11T14:43:11.247Z,9.84
2023-12-11T14:45:38.098Z,9.83
2023-12-11T14:48:05.911Z,9.78
2023-12-11T14:50:32.768Z,9.70
2023-12-11T14:52:59.556Z,9.65
2023-12-11T14:55:26.727Z,9.62
2023-12-11T14:57:53.861Z,9.60
2023-12-11T15:00:20.840Z,9.60
2023-12-11T15:02:47.732Z,9.57
2023-12-11T15:05:14.638Z,9.53
2023-12-11T15:07:41.320Z,9.48
2023-12-11T15:10:08.668Z,9.39
2023-12-11T15:12:39.278Z,9.38
2023-12-11T15:15:07.816Z,9.37
2023-12-11T15:17:34.978Z,9.29
2023-12-11T15:20:11.875Z,9.24
2023-12-11T15:22:38.989Z,9.31
2023-12-11T15:25:09.298Z,9.31
2023-12-11T15:27:36.440Z,9.28
2023-12-11T15:30:04.991Z,9.31
2023-12-11T15:32:31.634Z,9.32
2023-12-11T15:34:58.442Z,9.29
2023-12-11T15:37:25.177Z,9.30
2023-12-11T15:39:51.944Z,9.36
2023-12-11T15:42:20.737Z,9.38
2023-12-11T15:44:48.273Z,9.33
2023-12-11T15:47:14.920Z,9.28
2023-12-11T15:49:41.717Z,9.24
2023-12-11T15:52:09.657Z,9.27
2023-12-11T15:54:37.283Z,9.22
2023-12-11T15:57:04.122Z,9.12
2023-12-11T15:59:30.795Z,9.10
2023-12-11T16:01:57.571Z,9.06
2023-12-11T16:04:24.447Z,9.01
2023-12-11T16:06:51.184Z,9.05
2023-12-11T16:09:19.010Z,9.03
2023-12-11T16:11:46.201Z,9.12
2023-12-11T16:14:13.054Z,9.10
2023-12-11T16:16:41.343Z,9.14
2023-12-11T16:19:08.968Z,9.21
2023-12-11T16:21:39.281Z,9.25
2023-12-11T16:24:06.774Z,9.32
2023-12-11T16:26:33.554Z,9.33
2023-12-11T16:29:00.239Z,9.30
2023-12-11T16:31:27.034Z,9.30
2023-12-11T16:33:54.130Z,9.30
2023-12-11T16:36:20.906Z,9.33
2023-12-11T16:38:47.602Z,9.31
2023-12-11T16:41:24.804Z,9.31
2023-12-11T16:43:52.105Z,9.39
2023-12-11T16:46:19.454Z,9.44
2023-12-11T16:48:46.269Z,9.42
2023-12-11T16:51:13.536Z,9.43
2023-12-11T16:53:41.601Z,9.45
2023-12-11T16:56:09.113Z,9.40
2023-12-11T16:58:38.537Z,9.38
2023-12-11T17:01:05.879Z,9.37
2023-12-11T17:03:32.744Z,9.36
2023-12-11T17:05:59.691Z,9.34
2023-12-11T17:08:26.858Z,9.35
2023-12-11T17:10:53.542Z,9.37
2023-12-11T17:13:20.417Z,9.41
2023-12-11T17:15:48.672Z,9.44
2023-12-11T17:18:15.585Z,9.41
2023-12-11T17:20:42.496Z,9.40
2023-12-11T17:23:09.179Z,9.35
2023-12-11T17:25:35.942Z,9.32
2023-12-11T17:28:05.772Z,9.31
2023-12-11T17:30:32.717Z,9.31
2023-12-11T17:32:59.725Z,9.29
2023-12-11T17:35:26.521Z,9.25
2023-12-11T17:37:53.288Z,9.13
2023-12-11T17:40:20.036Z,9.06
2023-12-11T17:42:46.929Z,9.00
2023-12-11T17:45:13.994Z,9.07
2023-12-11T17:47:40.796Z,9.08
2023-12-11T17:50:14.007Z,9.08
2023-12-11T17:52:40.806Z,9.08
2023-12-11T17:55:07.773Z,9.13
2023-12-11T17:57:34.794Z,9.17
2023-12-11T18:00:01.651Z,9.23
2023-12-11T18:02:32.409Z,9.24
2023-12-11T18:04:59.205Z,9.31
2023-12-11T18:07:26.969Z,9.29
2023-12-11T18:09:54.158Z,9.32
2023-12-11T18:12:28.472Z,9.30
2023-12-11T18:14:55.139Z,9.29
2023-12-11T18:17:21.739Z,9.34
2023-12-11T18:19:48.676Z,9.34
2023-12-11T18:22:16.598Z,9.30
2023-12-11T18:24:43.416Z,9.33
2023-12-11T18:27:10.185Z,9.29
2023-12-11T18:29:38.283Z,9.29
2023-12-11T18:32:05.345Z,9.19
2023-12-11T18:34:39.476Z,9.15
2023-12-11T18:37:14.509Z,9.11
2023-12-11T18:39:42.107Z,9.05
2023-12-11T18:42:08.733Z,9.04
2023-12-11T18:44:35.976Z,9.04
2023-12-11T18:47:02.680Z,9.08
2023-12-11T18:49:29.705Z,9.07
2023-12-11T18:51:56.573Z,9.03
2023-12-11T18:54:23.391Z,8.99
2023-12-11T18:56:51.398Z,8.99
2023-12-11T18:59:18.433Z,9.04
2023-12-11T19:01:45.332Z,9.08
2023-12-11T19:04:12.570Z,9.11
2023-12-11T19:06:39.576Z,9.12
2023-12-11T19:09:08.625Z,9.09
2023-12-11T19:11:36.150Z,9.08
2023-12-11T19:14:02.883Z,9.02
2023-12-11T19:16:29.564Z,8.96
2023-12-11T19:18:56.393Z,8.95
2023-12-11T19:21:23.556Z,8.94
2023-12-11T19:23:52.421Z,8.93
2023-12-11T19:26:19.875Z,8.88
2023-12-11T19:28:46.699Z,8.75
2023-12-11T19:31:13.732Z,8.68
2023-12-11T19:33:40.744Z,8.67
2023-12-11T19:36:07.838Z,8.66
2023-12-11T19:38:34.569Z,8.65
2023-12-11T19:41:01.390Z,8.64
2023-12-11T19:43:28.051Z,8.60
2023-12-11T19:45:55.029Z,8.55
2023-12-11T19:48:21.775Z,8.52
2023-12-11T19:50:48.912Z,8.45
2023-12-11T19:53:18.389Z,8.34
2023-12-11T19:55:45.669Z,8.28
2023-12-11T19:58:12.411Z,8.21
2023-12-11T20:00:40.381Z,8.14
2023-12-11T20:03:07.162Z,8.10
2023-12-11T20:05:34.123Z,8.04
2023-12-11T20:08:00.854Z,8.00
2023-12-11T20:10:27.713Z,7.96
2023-12-11T20:12:54.606Z,7.96
2023-12-11T20:15:21.410Z,7.89
2023-12-11T20:17:48.127Z,7.89
2023-12-11T20:20:14.897Z,7.90
2023-12-11T20:22:41.569Z,7.87
2023-12-11T20:25:11.702Z,7.82
2023-12-11T20:27:38.454Z,7.78
2023-12-11T20:30:06.133Z,7.77
2023-12-11T20:32:35.305Z,7.79
2023-12-11T20:35:03.132Z,7.75
2023-12-11T20:37:30.218Z,7.73
2023-12-11T20:39:57.198Z,7.76
2023-12-11T20:42:23.962Z,7.71
2023-12-11T20:44:53.610Z,7.71
2023-12-11T20:47:20.292Z,7.65
2023-12-11T20:49:47.667Z,7.67
2023-12-11T20:52:14.417Z,7.66
2023-12-11T20:54:44.631Z,7.65
2023-12-11T20:57:11.451Z,7.69
2023-12-11T20:59:38.057Z,7.67
2023-12-11T21:02:05.101Z,7.72
2023-12-11T21:04:32.347Z,7.74
2023-12-11T21:06:59.380Z,7.74
2023-12-11T21:09:26.137Z,7.74
2023-12-11T21:11:52.845Z,7.68
2023-12-11T21:14:20.328Z,7.66
2023-12-11T21:16:46.945Z,7.69
2023-12-11T21:19:15.089Z,7.65
2023-12-11T21:21:41.821Z,7.63
2023-12-11T21:24:09.963Z,7.65
2023-12-11T21:26:36.859Z,7.56
2023-12-11T21:29:03.611Z,7.51
2023-12-11T21:31:31.146Z,7.52
2023-12-11T21:33:58.901Z,7.57
2023-12-11T21:36:34.633Z,7.65
2023-12-11T21:39:01.621Z,7.72
2023-12-11T21:41:28.477Z,7.75
2023-12-11T21:43:57.604Z,7.83
2023-12-11T21:46:26.999Z,7.84
2023-12-11T21:48:58.014Z,7.84
2023-12-11T21:51:27.025Z,7.84
2023-12-11T21:53:53.957Z,7.81
2023-12-11T21:56:24.440Z,7.82
2023-12-11T21:58:53.126Z,7.80
2023-12-11T22:01:20.004Z,7.80
2023-12-11T22:03:46.918Z,7.82
2023-12-11T22:06:14.773Z,7.82
2023-12-11T22:08:41.719Z,7.82
2023-12-11T22:11:13.774Z,7.82
2023-12-11T22:13:40.617Z,7.79
2023-12-11T22:16:07.781Z,7.81
2023-12-11T22:18:34.753Z,7.76
2023-12-11T22:21:01.654Z,7.72
2023-12-11T22:23:28.330Z,7.64
2023-12-11T22:26:08.265Z,7.60
2023-12-11T22:28:35.576Z,7.56
2023-12-11T22:31:02.281Z,7.61
2023-12-11T22:33:29.009Z,7.59
2023-12-11T22:35:55.866Z,7.59
2023-12-11T22:38:23.003Z,7.64
2023-12-11T22:40:50.106Z,7.63
2023-12-11T22:43:16.981Z,7.64
2023-12-11T22:45:43.613Z,7.65
2023-12-11T22:48:10.518Z,7.69
2023-12-11T22:50:38.452Z,7.68
2023-12-11T22:53:05.316Z,7.67
2023-12-11T22:55:32.246Z,7.68
2023-12-11T22:58:06.320Z,7.68
2023-12-11T23:00:41.180Z,7.68
2023-12-11T23:03:08.402Z,7.66
2023-12-11T23:05:35.695Z,7.65
2023-12-11T23:08:02.784Z,7.61
2023-12-11T23:10:29.505Z,7.56
2023-12-11T23:12:56.262Z,7.52
2023-12-11T23:15:23.248Z,7.49
2023-12-11T23:17:50.096Z,7.47
2023-12-11T23:20:16.825Z,7.47
2023-12-11T23:22:43.523Z,7.42
2023-12-11T23:25:10.549Z,7.37
2023-12-11T23:27:43.823Z,7.33
2023-12-11T23:30:10.784Z,7.27
2023-12-11T23:32:37.635Z,7.19
2023-12-11T23:35:04.793Z,7.16
2023-12-11T23:37:32.406Z,7.12
2023-12-11T23:39:59.501Z,7.08
2023-12-11T23:42:26.367Z,7.00
2023-12-11T23:44:54.685Z,6.93
2023-12-11T23:47:21.305Z,6.89
2023-12-11T23:49:48.142Z,6.87
2023-12-11T23:52:15.027Z,6.86
2023-12-11T23:54:41.685Z,6.86
2023-12-11T23:57:09.198Z,6.83
2023-12-11T23:59:36.304Z,6.77
